Time;durP1;ratioP1;P1;durP2;ratioP2;P2;SDS_P1;SDS_P2;PMS_P1;PMS_P2;Temp;Humidity;BMP_temperature;BMP_pressure;BME280_temperature;BME280_humidity;BME280_pressure;Samples;Min_cycle;Max_cycle;Signal;HPM_P1;HPM_P2
2023/06/22 00:02:35;;;;;;;6.33;3.83;;;;;;;25.38;63.70;99171.59;6216892;23;20227;-86
2023/06/22 00:26:16;;;;;;;;;;;;;;;;;;;;;
2023/06/22 00:46:14;;;;;;;14.47;5.33;;;;;;;25.63;61.94;99205.41;6124963;23;20179;-85
2023/06/22 00:52:45;;;;;;;8.07;4.97;;;;;;;25.42;63.07;99203.28;6124813;23;20488;-85
2023/06/22 00:55:39;;;;;;;8.40;4.33;;;;;;;25.43;62.79;99206.81;6124470;23;20595;-85
2023/06/22 00:59:03;;;;;;;;;;;;;;;;;;;;;
2023/06/22 01:09:05;;;;;;;;;;;;;;;;;;;;;
2023/06/22 01:19:56;;;;;;;10.57;5.93;;;;;;;25.12;63.14;99222.84;6246105;23;20201;-85
2023/06/22 01:26:40;;;;;;;9.47;5.33;;;;;;;25.02;63.43;99214.97;6245966;23;20207;-85
2023/06/22 01:42:58;;;;;;;8.60;5.57;;;;;;;24.86;63.47;99198.06;6245969;23;20207;-85
2023/06/22 01:45:53;;;;;;;;;;;;;;;;;;;;;
2023/06/22 01:55:35;;;;;;;;;;;;;;;;;;;;;
2023/06/22 01:59:08;;;;;;;;;;;;;;;;;;;;;
2023/06/22 02:29:33;;;;;;;8.43;5.03;;;;;;;24.55;65.20;99222.00;6248196;23;20176;-85
2023/06/22 02:31:59;;;;;;;9.27;4.67;;;;;;;24.50;65.63;99213.63;6248002;23;20157;-86
2023/06/22 02:34:24;;;;;;;10.67;5.83;;;;;;;24.46;65.51;99225.69;6221168;23;20310;-85
2023/06/22 02:36:51;;;;;;;8.53;5.13;;;;;;;24.44;65.57;99233.91;6247545;23;20557;-85
2023/06/22 02:39:22;;;;;;;8.50;4.93;;;;;;;24.45;65.71;99232.88;6221103;23;20161;-85
2023/06/22 02:41:51;;;;;;;10.30;4.77;;;;;;;24.47;65.81;99224.69;6248014;23;20461;-85
2023/06/22 02:44:17;;;;;;;9.83;5.67;;;;;;;24.44;66.60;99241.09;6247537;23;20173;-85
2023/06/22 02:46:43;;;;;;;8.47;4.83;;;;;;;24.45;66.40;99232.03;6247719;23;20153;-85
2023/06/22 02:49:09;;;;;;;13.17;5.73;;;;;;;24.50;66.19;99244.97;6247807;23;20218;-85
2023/06/22 02:51:34;;;;;;;9.43;5.07;;;;;;;24.55;66.01;99243.47;6247497;23;20184;-85
2023/06/22 02:54:00;;;;;;;9.40;5.07;;;;;;;24.49;65.83;99249.47;6247461;23;20145;-85
2023/06/22 02:56:26;;;;;;;8.90;5.40;;;;;;;24.42;65.53;99249.28;6247376;23;20179;-85
2023/06/22 02:58:52;;;;;;;10.80;5.90;;;;;;;24.43;65.11;99244.75;6247695;23;20561;-85
2023/06/22 03:01:23;;;;;;;8.40;5.10;;;;;;;24.37;65.50;99240.91;6247394;23;20218;-85
2023/06/22 03:03:48;;;;;;;8.03;5.07;;;;;;;24.38;65.47;99239.06;6220949;23;20502;-85
2023/06/22 03:06:13;;;;;;;7.00;4.37;;;;;;;24.35;65.73;99248.28;6220948;23;20632;-85
2023/06/22 03:08:39;;;;;;;12.97;5.70;;;;;;;24.27;66.19;99234.03;6247372;23;20532;-85
2023/06/22 03:11:04;;;;;;;7.83;4.77;;;;;;;24.21;66.34;99245.41;6220856;23;20149;-85
2023/06/22 03:13:30;;;;;;;9.00;5.73;;;;;;;24.22;66.55;99241.72;6247627;23;20155;-86
2023/06/22 03:15:55;;;;;;;14.47;6.67;;;;;;;24.25;66.56;99244.91;6247521;23;20168;-85
2023/06/22 03:18:22;;;;;;;9.73;5.90;;;;;;;24.24;66.43;99239.72;6247271;23;20576;-85
2023/06/22 03:20:47;;;;;;;13.57;5.83;;;;;;;24.24;66.60;99245.09;6220776;23;20157;-85
2023/06/22 03:23:13;;;;;;;10.77;5.80;;;;;;;24.26;66.65;99238.56;6247235;23;20149;-85
2023/06/22 03:25:38;;;;;;;8.77;5.37;;;;;;;24.23;67.13;99238.03;6216780;23;20582;-85
2023/06/22 03:28:04;;;;;;;10.40;6.13;;;;;;;24.20;66.83;99238.38;6216820;23;20150;-85
2023/06/22 03:30:29;;;;;;;14.37;5.90;;;;;;;24.21;66.82;99235.50;6216758;23;20638;-85
2023/06/22 03:32:55;;;;;;;8.47;5.47;;;;;;;24.19;66.72;99240.19;6217430;23;20161;-85
2023/06/22 03:35:20;;;;;;;8.47;5.40;;;;;;;24.17;66.48;99239.53;6216960;23;20196;-85
2023/06/22 03:37:45;;;;;;;9.10;5.47;;;;;;;24.13;66.55;99238.19;6190429;23;20241;-85
2023/06/22 03:40:11;;;;;;;9.03;5.40;;;;;;;24.09;66.55;99244.88;6216696;23;20176;-85
2023/06/22 03:42:37;;;;;;;8.47;5.67;;;;;;;24.13;66.40;99238.19;6217300;23;20582;-85
2023/06/22 03:45:03;;;;;;;12.90;5.07;;;;;;;24.18;66.33;99240.38;6190428;23;20158;-85
2023/06/22 03:47:29;;;;;;;11.10;5.93;;;;;;;24.20;66.33;99244.56;6217313;23;20157;-85
2023/06/22 03:49:54;;;;;;;11.00;6.23;;;;;;;24.24;66.12;99247.78;6216614;23;20476;-85
2023/06/22 03:52:22;;;;;;;11.30;6.27;;;;;;;24.21;65.98;99248.09;6216915;23;20157;-85
2023/06/22 03:54:47;;;;;;;12.07;6.87;;;;;;;24.20;65.96;99249.94;6216898;23;20584;-85
2023/06/22 03:57:13;;;;;;;12.53;6.70;;;;;;;24.18;66.07;99251.94;6216449;23;20169;-85
2023/06/22 03:59:38;;;;;;;12.23;6.43;;;;;;;24.10;66.69;99249.25;6190234;23;20162;-85
2023/06/22 04:02:04;;;;;;;10.47;6.27;;;;;;;24.13;66.44;99243.56;6216462;23;20153;-85
2023/06/22 04:04:29;;;;;;;10.70;6.30;;;;;;;24.17;66.54;99249.41;6216812;23;20146;-85
2023/06/22 04:06:55;;;;;;;9.83;6.17;;;;;;;24.19;67.02;99247.41;6217106;23;20149;-85
2023/06/22 04:09:21;;;;;;;11.30;6.67;;;;;;;24.22;66.71;99241.72;6216416;23;20161;-85
2023/06/22 04:11:47;;;;;;;10.20;5.70;;;;;;;24.26;66.68;99243.06;6216414;23;20145;-85
2023/06/22 04:14:12;;;;;;;11.23;5.80;;;;;;;24.30;66.88;99244.41;6216706;23;20157;-85
2023/06/22 04:16:37;;;;;;;10.77;6.23;;;;;;;24.39;66.69;99254.16;6190025;23;20190;-85
2023/06/22 04:19:03;;;;;;;10.70;6.33;;;;;;;24.45;66.90;99253.47;6216317;23;20508;-85
2023/06/22 04:21:28;;;;;;;10.40;6.43;;;;;;;24.47;66.78;99250.66;6190141;23;20597;-85
2023/06/22 04:23:54;;;;;;;11.33;6.50;;;;;;;24.43;66.73;99258.16;6224659;23;20204;-85
2023/06/22 04:26:20;;;;;;;10.27;6.67;;;;;;;24.45;66.52;99254.31;6247357;23;20145;-85
2023/06/22 04:28:51;;;;;;;11.43;6.73;;;;;;;24.51;66.57;99258.19;6246565;23;20160;-85
2023/06/22 04:31:17;;;;;;;11.23;5.87;;;;;;;24.60;66.29;99251.84;6246075;23;20137;-85
2023/06/22 04:33:42;;;;;;;9.27;5.57;;;;;;;24.68;66.34;99249.16;6219974;23;20344;-84
2023/06/22 04:36:08;;;;;;;10.63;6.53;;;;;;;24.77;66.30;99250.81;6246665;23;20262;-85
2023/06/22 04:38:33;;;;;;;9.83;5.97;;;;;;;24.89;66.38;99256.72;6220013;23;20478;-85
2023/06/22 04:41:01;;;;;;;11.77;6.03;;;;;;;25.03;66.00;99256.03;6246907;23;20156;-85
2023/06/22 04:43:30;;;;;;;12.10;6.50;;;;;;;25.16;65.70;99264.41;6246340;23;20159;-85
2023/06/22 04:45:55;;;;;;;11.20;6.40;;;;;;;25.16;65.45;99258.22;6246292;23;20157;-85
2023/06/22 04:48:21;;;;;;;13.57;7.70;;;;;;;25.17;65.72;99265.25;6246396;23;20156;-85
2023/06/22 04:50:46;;;;;;;11.17;7.33;;;;;;;25.24;65.85;99261.69;6246337;23;20224;-85
2023/06/22 04:53:12;;;;;;;11.97;7.53;;;;;;;25.35;66.05;99268.56;6246621;23;20149;-85
2023/06/22 04:55:41;;;;;;;14.87;8.60;;;;;;;25.35;66.41;99273.94;6246203;23;20156;-85
2023/06/22 04:58:07;;;;;;;13.80;7.10;;;;;;;25.46;66.83;99271.75;6246231;23;20153;-85
2023/06/22 05:00:36;;;;;;;12.67;7.60;;;;;;;25.50;67.21;99266.88;6220077;23;20223;-86
2023/06/22 05:03:03;;;;;;;15.03;7.43;;;;;;;25.59;67.13;99276.59;6246265;23;20172;-85
2023/06/22 05:05:29;;;;;;;10.05;7.10;;;;;;;25.64;67.73;99279.59;6246160;23;20573;-85
2023/06/22 05:07:59;;;;;;;9.43;6.40;;;;;;;25.91;66.02;99272.94;6219619;23;20168;-85
2023/06/22 05:10:25;;;;;;;9.73;6.20;;;;;;;26.06;64.64;99279.25;6246516;23;20157;-85
2023/06/22 05:12:50;;;;;;;8.77;5.80;;;;;;;26.15;62.01;99278.25;6246427;23;20145;-86
2023/06/22 05:15:16;;;;;;;12.17;5.43;;;;;;;26.34;62.25;99287.69;6246770;23;20553;-86
2023/06/22 05:17:44;;;;;;;10.07;5.00;;;;;;;26.45;62.02;99284.59;6219329;23;20181;-86
2023/06/22 05:20:11;;;;;;;8.33;5.37;;;;;;;26.67;60.95;99281.09;6219594;23;20636;-86
2023/06/22 05:22:37;;;;;;;8.53;5.13;;;;;;;26.80;59.99;99271.47;6245836;23;20153;-86
2023/06/22 05:25:04;;;;;;;11.40;5.63;;;;;;;26.93;59.28;99284.28;6219330;23;20566;-85
2023/06/22 05:27:30;;;;;;;10.00;6.13;;;;;;;27.00;58.77;99282.53;6219567;23;20164;-86
2023/06/22 05:29:55;;;;;;;9.90;5.63;;;;;;;27.04;60.14;99286.56;6245995;23;20479;-86
2023/06/22 05:32:21;;;;;;;10.67;5.33;;;;;;;27.15;60.28;99290.66;6246293;23;20155;-86
2023/06/22 05:34:46;;;;;;;13.00;6.87;;;;;;;27.30;58.60;99286.13;6245984;23;20228;-86
2023/06/22 05:37:12;;;;;;;12.27;7.07;;;;;;;27.30;57.85;99296.91;6245479;23;20172;-87
2023/06/22 05:39:38;;;;;;;12.47;6.97;;;;;;;27.35;57.85;99289.13;6245708;23;20164;-86
2023/06/22 05:42:07;;;;;;;10.13;6.15;;;;;;;27.40;58.08;99286.75;6245928;23;20149;-86
2023/06/22 05:44:33;;;;;;;14.10;6.80;;;;;;;27.49;57.39;99291.00;6246084;23;20234;-86
2023/06/22 05:46:59;;;;;;;9.90;6.20;;;;;;;27.58;57.44;99283.69;6244523;23;20584;-86
2023/06/22 05:49:29;;;;;;;8.73;6.43;;;;;;;27.59;57.74;99290.75;6244162;23;20565;-86
2023/06/22 05:51:55;;;;;;;10.13;6.10;;;;;;;27.50;57.97;99299.91;6243594;23;20234;-86
2023/06/22 05:54:20;;;;;;;12.37;7.00;;;;;;;27.49;58.83;99300.97;6243007;23;20149;-86
2023/06/22 05:56:46;;;;;;;11.75;6.82;;;;;;;27.68;58.17;99293.16;6216688;23;20177;-85
2023/06/22 05:59:12;;;;;;;11.23;6.93;;;;;;;27.76;57.53;99286.84;6243396;23;20157;-86
2023/06/22 06:01:37;;;;;;;10.00;7.10;;;;;;;27.79;58.01;99291.84;6243385;23;20164;-86
2023/06/22 06:04:03;;;;;;;10.43;6.88;;;;;;;27.88;58.19;99285.38;6216875;23;20241;-86
2023/06/22 06:06:29;;;;;;;12.98;6.68;;;;;;;28.06;58.23;99280.44;6244423;23;20207;-86
2023/06/22 06:08:56;;;;;;;9.30;6.22;;;;;;;28.16;57.50;99282.84;6245874;23;20173;-86
2023/06/22 06:11:22;;;;;;;10.80;7.10;;;;;;;28.23;57.01;99286.44;6245730;23;20161;-87
2023/06/22 06:13:47;;;;;;;10.25;6.65;;;;;;;28.27;56.21;99285.03;6245796;23;20550;-86
2023/06/22 06:16:13;;;;;;;10.18;6.78;;;;;;;28.38;55.97;99277.28;6219316;23;20253;-87
2023/06/22 06:18:38;;;;;;;10.98;6.88;;;;;;;28.43;55.12;99279.44;6246044;23;20149;-86
2023/06/22 06:21:03;;;;;;;9.95;6.50;;;;;;;28.60;54.31;99272.75;6246345;23;20572;-86
2023/06/22 06:23:29;;;;;;;12.32;6.95;;;;;;;28.71;53.33;99271.44;6245443;23;20573;-86
2023/06/22 06:25:54;;;;;;;15.55;6.57;;;;;;;28.76;52.76;99263.59;6246078;23;20141;-86
2023/06/22 06:28:20;;;;;;;11.45;6.68;;;;;;;28.88;53.22;99270.16;6246028;23;20149;-86
2023/06/22 06:30:47;;;;;;;11.13;6.97;;;;;;;28.98;53.77;99262.56;6246024;23;20149;-87
2023/06/22 06:33:13;;;;;;;10.77;6.70;;;;;;;29.17;52.79;99267.25;6246022;23;20145;-86
2023/06/22 06:35:38;;;;;;;11.85;6.60;;;;;;;29.27;52.56;99253.47;6245859;23;20156;-86
2023/06/22 06:38:04;;;;;;;9.50;6.50;;;;;;;29.36;53.49;99261.22;6245646;23;20489;-86
2023/06/22 06:40:29;;;;;;;10.18;6.38;;;;;;;29.57;50.51;99260.31;6245557;23;20149;-87
2023/06/22 06:42:55;;;;;;;12.55;6.95;;;;;;;29.65;50.44;99265.56;6245581;23;20152;-86
2023/06/22 06:45:22;;;;;;;9.38;6.50;;;;;;;29.75;52.69;99257.91;6245587;23;20209;-86
2023/06/22 06:47:49;;;;;;;10.05;6.35;;;;;;;30.02;50.10;99267.00;6245946;23;20231;-87
2023/06/22 06:50:15;;;;;;;9.80;6.63;;;;;;;30.22;49.40;99259.81;6245897;23;20169;-87
2023/06/22 06:52:41;;;;;;;10.80;6.07;;;;;;;30.33;49.41;99254.66;6245905;23;20588;-87
2023/06/22 06:55:08;;;;;;;9.63;6.18;;;;;;;30.58;49.36;99262.25;6219008;23;20153;-87
2023/06/22 06:57:37;;;;;;;9.88;6.63;;;;;;;30.75;48.78;99261.63;6246132;23;20177;-87
2023/06/22 07:00:09;;;;;;;8.55;5.85;;;;;;;30.81;46.88;99258.09;6219276;23;20169;-87
2023/06/22 07:02:35;;;;;;;9.30;5.53;;;;;;;30.84;45.13;99257.69;6246598;23;20157;-87
2023/06/22 07:05:00;;;;;;;10.27;5.47;;;;;;;31.10;46.71;99261.47;6246120;23;20537;-87
2023/06/22 07:07:28;;;;;;;8.15;5.57;;;;;;;31.25;44.69;99260.22;6248045;23;20145;-87
2023/06/22 07:09:54;;;;;;;10.48;5.18;;;;;;;31.48;45.22;99265.19;6220773;23;20180;-87
2023/06/22 07:12:22;;;;;;;10.50;5.50;;;;;;;31.58;45.14;99274.56;6220658;23;20601;-88
2023/06/22 07:14:50;;;;;;;8.07;4.65;;;;;;;31.75;43.85;99272.25;6220680;23;20599;-87
2023/06/22 07:17:16;;;;;;;6.88;4.72;;;;;;;31.75;43.27;99274.09;6220539;23;20188;-88
2023/06/22 07:19:43;;;;;;;9.20;5.30;;;;;;;31.74;41.94;99283.28;6221851;23;20153;-87
2023/06/22 07:22:08;;;;;;;8.75;5.53;;;;;;;31.85;42.45;99278.03;6221927;23;20203;-87
2023/06/22 07:24:35;;;;;;;10.90;5.93;;;;;;;31.78;42.10;99282.66;6220461;23;20502;-88
2023/06/22 07:27:02;;;;;;;8.10;5.00;;;;;;;31.74;43.12;99278.69;6247450;23;20167;-88
2023/06/22 07:29:29;;;;;;;7.50;4.97;;;;;;;31.98;41.73;99286.13;6220785;23;20252;-87
2023/06/22 07:31:56;;;;;;;8.45;5.60;;;;;;;32.12;42.19;99279.66;6221670;23;20157;-88
2023/06/22 07:34:23;;;;;;;7.72;5.00;;;;;;;32.26;42.93;99279.59;6221103;23;20560;-88
2023/06/22 07:36:50;;;;;;;11.13;5.47;;;;;;;32.29;43.66;99281.84;6220506;23;20616;-88
2023/06/22 07:39:17;;;;;;;6.95;5.07;;;;;;;32.34;41.56;99282.06;6247280;23;20207;-88
2023/06/22 07:41:43;;;;;;;9.55;5.68;;;;;;;32.60;42.19;99279.22;6219858;23;20162;-87
2023/06/22 07:44:10;;;;;;;9.55;5.63;;;;;;;32.56;41.03;99278.81;6247179;23;20195;-88
2023/06/22 07:46:36;;;;;;;8.88;5.85;;;;;;;32.89;42.25;99277.78;6247326;23;20198;-88
2023/06/22 07:49:03;;;;;;;8.63;5.10;;;;;;;33.09;40.00;99276.59;6217107;23;20168;-88
2023/06/22 07:51:33;;;;;;;9.50;5.13;;;;;;;32.90;40.85;99272.13;6243598;23;20146;-89
2023/06/22 07:53:59;;;;;;;10.07;5.65;;;;;;;32.83;40.17;99284.91;6220372;23;20168;-89
2023/06/22 07:56:29;;;;;;;7.97;5.72;;;;;;;32.97;40.17;99277.50;6219409;23;20251;-88
2023/06/22 07:58:58;;;;;;;7.80;5.18;;;;;;;33.17;40.60;99276.31;6221078;23;20581;-89
2023/06/22 08:01:25;;;;;;;8.02;5.03;;;;;;;33.17;40.97;99261.91;6246652;23;20153;-89
2023/06/22 08:03:52;;;;;;;10.02;5.55;;;;;;;33.27;39.21;99273.94;6219610;23;20148;-88
2023/06/22 08:06:19;;;;;;;9.85;5.55;;;;;;;33.46;39.57;99279.41;6247211;23;20687;-89
2023/06/22 08:08:48;;;;;;;6.97;4.82;;;;;;;33.52;40.55;99270.34;6219946;23;20160;-90
2023/06/22 08:11:16;;;;;;;9.38;6.10;;;;;;;33.73;40.37;99278.91;6246310;23;20465;-89
2023/06/22 08:13:43;;;;;;;7.72;5.28;;;;;;;33.94;38.19;99280.34;6220135;23;20168;-88
2023/06/22 08:16:10;;;;;;;9.80;5.40;;;;;;;34.03;37.68;99279.00;6219491;23;20701;-89
2023/06/22 08:18:37;;;;;;;10.10;5.10;;;;;;;33.97;37.70;99277.19;6219974;23;20156;-90
2023/06/22 08:21:03;;;;;;;8.32;5.13;;;;;;;34.01;37.70;99275.69;6246172;23;20153;-89
2023/06/22 08:23:30;;;;;;;6.97;4.65;;;;;;;33.83;38.64;99270.25;6246054;23;20206;-89
2023/06/22 08:25:57;;;;;;;7.22;4.70;;;;;;;33.86;39.30;99267.88;6219686;23;20156;-89
2023/06/22 08:28:24;;;;;;;9.15;4.50;;;;;;;34.00;38.81;99268.56;6245497;23;20483;-88
2023/06/22 08:30:50;;;;;;;6.80;4.70;;;;;;;34.22;36.70;99258.91;6246291;23;20149;-91
2023/06/22 08:33:16;;;;;;;5.90;3.88;;;;;;;34.23;37.73;99263.28;6246286;23;20456;-90
2023/06/22 08:35:43;;;;;;;6.68;4.25;;;;;;;34.16;36.63;99254.38;6219815;23;20159;-89
2023/06/22 08:38:10;;;;;;;6.70;4.65;;;;;;;34.20;37.90;99258.28;6245489;23;20153;-89
2023/06/22 08:40:37;;;;;;;6.22;4.05;;;;;;;34.48;37.65;99253.09;6245626;23;20601;-90
2023/06/22 08:43:04;;;;;;;7.78;4.15;;;;;;;34.74;38.54;99249.19;6245573;23;20149;-90
2023/06/22 08:45:30;;;;;;;5.43;4.05;;;;;;;35.11;35.83;99250.69;6246215;23;20149;-89
2023/06/22 08:47:57;;;;;;;7.30;4.40;;;;;;;35.21;34.38;99241.09;6246053;23;20145;-90
2023/06/22 08:50:24;;;;;;;5.97;3.33;;;;;;;35.27;34.74;99238.25;6245907;23;20229;-89
2023/06/22 08:52:54;;;;;;;5.88;3.83;;;;;;;35.33;33.21;99247.34;6245886;23;20175;-91
2023/06/22 08:55:21;;;;;;;6.53;4.30;;;;;;;35.07;34.39;99248.66;6245884;23;20210;-90
2023/06/22 08:57:47;;;;;;;7.32;4.68;;;;;;;35.12;34.03;99244.16;6218879;23;20189;-89
2023/06/22 09:00:16;;;;;;;6.95;4.25;;;;;;;35.28;34.82;99245.34;6219350;23;20149;-90
2023/06/22 09:02:44;;;;;;;4.82;3.42;;;;;;;35.28;37.45;99242.63;6219376;23;20156;-90
2023/06/22 09:05:11;;;;;;;7.18;3.97;;;;;;;35.58;35.08;99248.81;6245677;23;20242;-89
2023/06/22 09:07:38;;;;;;;7.63;4.05;;;;;;;35.57;34.88;99249.88;6246039;23;20142;-90
2023/06/22 09:10:05;;;;;;;5.75;4.00;;;;;;;35.60;34.65;99237.66;6219570;23;20630;-89
2023/06/22 09:12:33;;;;;;;6.00;4.22;;;;;;;35.67;34.49;99241.06;6245262;23;20232;-90
2023/06/22 09:15:01;;;;;;;8.35;4.50;;;;;;;35.74;34.62;99239.06;6245944;23;20156;-90
2023/06/22 09:17:27;;;;;;;7.55;4.85;;;;;;;35.52;34.60;99240.72;6245786;23;20185;-90
2023/06/22 09:19:54;;;;;;;6.30;4.03;;;;;;;35.49;34.74;99241.19;6219282;23;20527;-91
2023/06/22 09:22:21;;;;;;;7.13;4.68;;;;;;;35.69;34.73;99237.03;6245581;23;20583;-91
2023/06/22 09:24:48;;;;;;;6.60;4.03;;;;;;;35.84;34.18;99233.81;6245688;23;20577;-91
2023/06/22 09:27:14;;;;;;;6.65;4.30;;;;;;;35.97;33.59;99238.19;6217627;23;20183;-89
2023/06/22 09:29:41;;;;;;;6.80;3.97;;;;;;;35.82;34.95;99235.97;6218806;23;20580;-90
2023/06/22 09:32:08;;;;;;;6.65;3.88;;;;;;;36.14;34.24;99236.38;6246282;23;20149;-90
2023/06/22 09:34:36;;;;;;;6.65;4.00;;;;;;;36.56;33.81;99226.81;6245774;23;20153;-89
2023/06/22 09:37:03;;;;;;;6.32;4.10;;;;;;;36.75;33.36;99225.53;6219165;23;20184;-89
2023/06/22 09:39:29;;;;;;;5.97;4.22;;;;;;;36.74;33.62;99229.31;6245445;23;20602;-90
2023/06/22 09:41:59;;;;;;;6.10;4.53;;;;;;;36.87;33.45;99223.53;6244589;23;20172;-90
2023/06/22 09:44:24;;;;;;;5.75;4.25;;;;;;;37.08;33.39;99224.75;6242921;23;20156;-90
2023/06/22 09:46:50;;;;;;;9.63;3.92;;;;;;;37.05;33.29;99224.41;6244940;23;20141;-89
2023/06/22 09:49:18;;;;;;;6.43;4.30;;;;;;;36.99;31.66;99228.97;6245550;23;20149;-92
2023/06/22 09:51:44;;;;;;;6.70;4.05;;;;;;;36.87;31.65;99229.00;6218808;23;20153;-89
2023/06/22 09:54:09;;;;;;;6.95;4.00;;;;;;;36.85;32.37;99230.31;6245355;23;20149;-90
2023/06/22 09:56:35;;;;;;;5.22;3.85;;;;;;;36.54;32.87;99222.69;6245731;23;20177;-88
2023/06/22 09:59:00;;;;;;;9.45;4.07;;;;;;;36.70;33.50;99222.72;6245764;23;20145;-89
2023/06/22 10:01:25;;;;;;;8.25;4.55;;;;;;;36.90;31.72;99222.19;6245999;23;20145;-88
2023/06/22 10:03:55;;;;;;;8.52;4.68;;;;;;;37.14;31.29;99223.72;6219250;23;20600;-88
2023/06/22 10:06:21;;;;;;;6.65;4.07;;;;;;;37.28;31.89;99218.75;6245670;23;20141;-88
2023/06/22 10:08:48;;;;;;;5.55;4.07;;;;;;;37.14;31.21;99212.78;6246418;23;20160;-89
2023/06/22 10:11:13;;;;;;;6.70;4.30;;;;;;;37.26;32.13;99216.28;6245671;23;20153;-88
2023/06/22 10:13:39;;;;;;;6.70;4.78;;;;;;;37.43;32.62;99216.25;6246034;23;20180;-89
2023/06/22 10:16:04;;;;;;;6.03;4.40;;;;;;;37.38;31.95;99210.69;6245574;23;20247;-88
2023/06/22 10:18:30;;;;;;;6.10;4.32;;;;;;;37.21;31.54;99216.19;6246363;23;20165;-88
2023/06/22 10:20:56;;;;;;;6.47;4.15;;;;;;;37.14;31.87;99220.16;6245704;23;20145;-89
2023/06/22 10:23:22;;;;;;;7.07;4.38;;;;;;;36.97;32.17;99219.34;6245640;23;20149;-90
2023/06/22 10:25:47;;;;;;;6.43;4.03;;;;;;;36.87;32.59;99204.41;6219324;23;20169;-88
2023/06/22 10:28:13;;;;;;;5.68;4.15;;;;;;;36.83;31.96;99213.34;6245572;23;20220;-88
2023/06/22 10:30:41;;;;;;;6.60;3.80;;;;;;;36.99;32.68;99212.56;6245652;23;20491;-89
2023/06/22 10:33:07;;;;;;;6.28;3.72;;;;;;;37.30;31.55;99216.56;6245616;23;20149;-89
2023/06/22 10:35:33;;;;;;;5.88;4.13;;;;;;;37.25;31.22;99208.31;6245574;23;20153;-88
2023/06/22 10:37:59;;;;;;;7.43;4.32;;;;;;;36.90;32.11;99214.84;6246328;23;20224;-89
2023/06/22 10:40:25;;;;;;;6.47;4.28;;;;;;;36.91;32.57;99197.38;6247243;23;20145;-88
2023/06/22 10:42:50;;;;;;;6.22;4.13;;;;;;;37.20;32.18;99202.75;6247467;23;20227;-88
2023/06/22 10:45:16;;;;;;;8.57;4.10;;;;;;;37.61;32.54;99202.28;6247223;23;20231;-88
2023/06/22 10:47:44;;;;;;;6.88;4.03;;;;;;;37.61;31.03;99191.31;6247416;23;20211;-90
2023/06/22 10:50:11;;;;;;;5.88;4.25;;;;;;;37.73;30.93;99193.94;6247536;23;20149;-89
2023/06/22 10:52:36;;;;;;;5.93;3.97;;;;;;;37.97;31.51;99195.38;6221051;23;20176;-88
2023/06/22 10:55:02;;;;;;;5.40;4.07;;;;;;;38.01;30.96;99191.03;6220946;23;20172;-89
2023/06/22 10:57:27;;;;;;;7.78;4.20;;;;;;;38.12;30.72;99181.84;6247159;23;20180;-90
2023/06/22 10:59:53;;;;;;;5.20;3.47;;;;;;;37.88;31.56;99181.31;6247772;23;20235;-89
2023/06/22 11:02:18;;;;;;;14.18;8.20;;;;;;;37.86;31.28;99180.75;6220937;23;20159;-89
2023/06/22 11:04:44;;;;;;;7.50;4.45;;;;;;;37.88;30.57;99185.94;6247396;23;20585;-89
2023/06/22 11:07:10;;;;;;;7.80;4.10;;;;;;;37.93;30.54;99186.00;6247230;23;20152;-89
2023/06/22 11:09:35;;;;;;;6.72;4.18;;;;;;;37.91;29.81;99183.53;6247365;23;20145;-88
2023/06/22 11:12:01;;;;;;;8.50;4.07;;;;;;;37.85;30.18;99175.47;6247303;23;20228;-89
2023/06/22 11:14:26;;;;;;;5.20;3.45;;;;;;;37.90;30.42;99176.41;6247258;23;20145;-89
2023/06/22 11:16:52;;;;;;;4.82;3.60;;;;;;;37.74;29.61;99165.53;6247807;23;20187;-90
2023/06/22 11:19:18;;;;;;;6.93;3.95;;;;;;;37.65;30.32;99172.50;6247152;23;20153;-88
2023/06/22 11:21:44;;;;;;;8.48;4.03;;;;;;;37.57;30.14;99168.31;6247626;23;20589;-89
2023/06/22 11:24:09;;;;;;;5.22;3.55;;;;;;;37.35;30.21;99168.25;6247672;23;20235;-88
2023/06/22 11:26:35;;;;;;;6.32;3.88;;;;;;;37.15;31.57;99164.41;6247389;23;20133;-89
2023/06/22 11:29:04;;;;;;;5.45;4.00;;;;;;;37.04;31.94;99162.59;6247058;23;20449;-88
2023/06/22 11:31:30;;;;;;;5.60;3.75;;;;;;;37.09;31.43;99162.69;6247046;23;20565;-88
2023/06/22 11:33:55;;;;;;;6.53;4.05;;;;;;;37.20;30.32;99162.59;6247520;23;20171;-88
2023/06/22 11:36:21;;;;;;;8.15;4.03;;;;;;;37.16;32.46;99166.09;6246986;23;20181;-88
2023/06/22 11:38:46;;;;;;;5.18;3.47;;;;;;;37.27;31.84;99168.69;6247283;23;20150;-88
2023/06/22 11:41:12;;;;;;;7.68;4.05;;;;;;;37.55;32.31;99159.53;6247318;23;20220;-88
2023/06/22 11:43:37;;;;;;;6.88;3.30;;;;;;;37.71;30.59;99168.75;6220485;23;20227;-89
2023/06/22 11:46:04;;;;;;;6.00;3.45;;;;;;;37.56;30.31;99172.13;6247019;23;20146;-89
2023/06/22 11:48:29;;;;;;;6.80;4.03;;;;;;;37.48;30.11;99167.09;6246763;23;20153;-88
2023/06/22 11:50:55;;;;;;;10.43;4.22;;;;;;;37.53;29.07;99175.34;6246889;23;20592;-89
2023/06/22 11:53:24;;;;;;;6.55;3.95;;;;;;;37.43;28.28;99173.31;6246647;23;20192;-88
2023/06/22 11:55:50;;;;;;;5.80;3.75;;;;;;;37.34;30.26;99174.81;6246751;23;20145;-89
2023/06/22 11:58:16;;;;;;;6.88;3.83;;;;;;;37.42;28.64;99168.13;6246888;23;20159;-89
2023/06/22 12:00:41;;;;;;;6.38;3.90;;;;;;;37.38;30.85;99164.19;6246785;23;20156;-89
2023/06/22 12:03:07;;;;;;;5.97;4.10;;;;;;;37.31;29.33;99160.81;6220127;23;20153;-88
2023/06/22 12:05:33;;;;;;;5.97;3.13;;;;;;;37.14;30.38;99158.09;6246635;23;20149;-89
2023/06/22 12:07:58;;;;;;;7.40;4.10;;;;;;;37.29;30.24;99160.25;6246598;23;20187;-88
2023/06/22 12:10:26;;;;;;;8.73;4.22;;;;;;;37.53;30.96;99164.41;6247026;23;20145;-89
2023/06/22 12:12:51;;;;;;;6.85;4.05;;;;;;;37.74;30.36;99157.31;6246620;23;20145;-89
2023/06/22 12:15:17;;;;;;;5.07;3.83;;;;;;;37.84;30.11;99151.94;6246494;23;20203;-89
2023/06/22 12:17:43;;;;;;;5.93;3.85;;;;;;;37.81;29.58;99156.03;6246859;23;20173;-89
2023/06/22 12:20:08;;;;;;;5.60;3.78;;;;;;;37.89;30.03;99152.88;6220589;23;20459;-89
2023/06/22 12:22:34;;;;;;;5.07;3.35;;;;;;;37.83;30.10;99151.13;6246735;23;20210;-89
2023/06/22 12:25:01;;;;;;;8.60;3.78;;;;;;;37.83;30.47;99150.28;6246417;23;20170;-89
2023/06/22 12:27:27;;;;;;;5.63;3.78;;;;;;;37.81;29.33;99150.56;6246553;23;20156;-89
2023/06/22 12:29:52;;;;;;;5.10;3.70;;;;;;;37.97;29.40;99146.91;6246883;23;20149;-89
2023/06/22 12:32:18;;;;;;;5.35;3.70;;;;;;;38.22;29.55;99142.78;6246416;23;20153;-89
2023/06/22 12:34:44;;;;;;;6.25;4.10;;;;;;;38.29;29.30;99137.94;6246439;23;20173;-89
2023/06/22 12:37:10;;;;;;;5.97;3.88;;;;;;;38.19;30.67;99130.44;6220543;23;20507;-89
2023/06/22 12:39:36;;;;;;;6.43;3.60;;;;;;;38.05;29.70;99127.28;6246803;23;20565;-89
2023/06/22 12:42:02;;;;;;;5.72;3.92;;;;;;;38.04;29.21;99138.50;6246746;23;20156;-89
2023/06/22 12:44:27;;;;;;;7.28;4.30;;;;;;;38.19;30.76;99132.34;6246028;23;20149;-89
2023/06/22 12:46:53;;;;;;;5.82;3.55;;;;;;;38.34;29.79;99132.53;6246264;23;20216;-89
2023/06/22 12:49:18;;;;;;;5.30;3.47;;;;;;;38.52;30.04;99129.41;6246741;23;20219;-89
2023/06/22 12:51:45;;;;;;;6.70;4.13;;;;;;;38.63;28.62;99126.47;6246721;23;20173;-88
2023/06/22 12:54:10;;;;;;;5.43;3.78;;;;;;;38.58;28.84;99125.59;6219857;23;20153;-89
2023/06/22 12:56:37;;;;;;;5.97;3.85;;;;;;;38.69;28.13;99127.34;6246159;23;20258;-89
2023/06/22 12:59:03;;;;;;;6.20;3.95;;;;;;;38.41;30.06;99125.75;6246286;23;20224;-90
2023/06/22 13:01:30;;;;;;;9.13;4.07;;;;;;;38.34;29.68;99124.31;6246186;23;20145;-90
2023/06/22 13:03:56;;;;;;;7.90;3.80;;;;;;;38.38;30.58;99120.81;6245937;23;20206;-89
2023/06/22 13:06:21;;;;;;;4.75;3.50;;;;;;;38.29;29.21;99127.00;6246551;23;20505;-89
2023/06/22 13:08:46;;;;;;;5.45;4.03;;;;;;;38.30;30.66;99117.66;6217259;23;20161;-89
2023/06/22 13:11:12;;;;;;;5.43;3.60;;;;;;;38.23;29.15;99115.16;6245364;23;20152;-89
2023/06/22 13:13:38;;;;;;;5.13;3.65;;;;;;;38.24;30.62;99113.22;6245309;23;20187;-89
2023/06/22 13:16:04;;;;;;;6.55;3.50;;;;;;;38.23;29.54;99115.16;6245774;23;20622;-90
2023/06/22 13:18:29;;;;;;;5.80;4.30;;;;;;;38.48;29.29;99118.13;6244737;23;20220;-90
2023/06/22 13:20:55;;;;;;;6.03;4.07;;;;;;;38.39;29.78;99113.41;6245536;23;20234;-88
2023/06/22 13:23:21;;;;;;;4.75;3.50;;;;;;;38.51;29.28;99125.00;6245983;23;20149;-89
2023/06/22 13:25:47;;;;;;;6.10;3.33;;;;;;;38.47;28.20;99116.47;6218525;23;20173;-90
2023/06/22 13:28:13;;;;;;;5.53;4.00;;;;;;;38.51;27.96;99108.56;6245844;23;20148;-90
2023/06/22 13:30:42;;;;;;;6.82;3.70;;;;;;;38.56;27.45;99105.88;6245746;23;20175;-90